sensor_id;sensor_type;location;lat;lon;timestamp;pressure;altitude;pressure_sealevel;temperature;humidity
70200;BME280;57587;55.688;37.600;2023-01-29T00:01:58;99677.59;;;1.55;57.88
70200;BME280;57587;55.688;37.600;2023-01-29T00:04:25;99680.94;;;1.57;57.94
70200;BME280;57587;55.688;37.600;2023-01-29T00:06:52;99685.53;;;1.55;57.81
70200;BME280;57587;55.688;37.600;2023-01-29T00:09:19;99682.59;;;1.58;57.77
70200;BME280;57587;55.688;37.600;2023-01-29T00:11:46;99680.94;;;1.57;58.06
70200;BME280;57587;55.688;37.600;2023-01-29T00:14:14;99674.50;;;1.50;58.31
70200;BME280;57587;55.688;37.600;2023-01-29T00:16:41;99670.28;;;1.47;58.23
70200;BME280;57587;55.688;37.600;2023-01-29T00:19:08;99683.38;;;1.49;57.43
70200;BME280;57587;55.688;37.600;2023-01-29T00:21:35;99677.72;;;1.53;57.56
70200;BME280;57587;55.688;37.600;2023-01-29T00:24:03;99680.25;;;1.55;57.03
70200;BME280;57587;55.688;37.600;2023-01-29T00:26:30;99667.81;;;1.46;57.15
70200;BME280;57587;55.688;37.600;2023-01-29T00:28:57;99671.84;;;1.50;57.29
70200;BME280;57587;55.688;37.600;2023-01-29T00:31:26;99670.19;;;1.49;57.32
70200;BME280;57587;55.688;37.600;2023-01-29T00:33:53;99669.69;;;1.55;57.49
70200;BME280;57587;55.688;37.600;2023-01-29T00:36:21;99662.47;;;1.57;56.42
70200;BME280;57587;55.688;37.600;2023-01-29T00:38:54;99667.06;;;1.55;56.47
70200;BME280;57587;55.688;37.600;2023-01-29T00:41:29;99661.88;;;1.53;56.40
70200;BME280;57587;55.688;37.600;2023-01-29T00:44:15;99665.25;;;1.55;56.89
70200;BME280;57587;55.688;37.600;2023-01-29T00:47:02;99657.94;;;1.59;56.96
70200;BME280;57587;55.688;37.600;2023-01-29T00:49:29;99657.69;;;1.51;57.34
70200;BME280;57587;55.688;37.600;2023-01-29T00:51:57;99644.50;;;1.51;57.33
70200;BME280;57587;55.688;37.600;2023-01-29T00:54:43;99644.66;;;1.49;56.97
70200;BME280;57587;55.688;37.600;2023-01-29T00:57:10;99641.19;;;1.49;57.07
70200;BME280;57587;55.688;37.600;2023-01-29T00:59:37;99652.81;;;1.46;57.59
70200;BME280;57587;55.688;37.600;2023-01-29T01:02:04;99652.81;;;1.46;57.62
70200;BME280;57587;55.688;37.600;2023-01-29T01:04:49;99650.03;;;1.48;57.41
70200;BME280;57587;55.688;37.600;2023-01-29T01:07:16;99653.41;;;1.50;57.76
70200;BME280;57587;55.688;37.600;2023-01-29T01:09:43;99655.06;;;1.51;57.58
70200;BME280;57587;55.688;37.600;2023-01-29T01:12:29;99651.34;;;1.53;57.54
70200;BME280;57587;55.688;37.600;2023-01-29T01:14:57;99654.13;;;1.52;57.13
70200;BME280;57587;55.688;37.600;2023-01-29T01:17:24;99645.00;;;1.45;57.00
70200;BME280;57587;55.688;37.600;2023-01-29T01:19:51;99654.97;;;1.41;57.62
70200;BME280;57587;55.688;37.600;2023-01-29T01:22:18;99655.09;;;1.40;56.93
70200;BME280;57587;55.688;37.600;2023-01-29T01:24:45;99651.84;;;1.36;56.91
70200;BME280;57587;55.688;37.600;2023-01-29T01:27:12;99652.72;;;1.36;56.81
70200;BME280;57587;55.688;37.600;2023-01-29T01:29:40;99656.28;;;1.35;56.73
70200;BME280;57587;55.688;37.600;2023-01-29T01:32:07;99662.06;;;1.29;56.10
70200;BME280;57587;55.688;37.600;2023-01-29T01:34:34;99660.38;;;1.28;55.65
70200;BME280;57587;55.688;37.600;2023-01-29T01:37:01;99652.25;;;1.20;55.87
70200;BME280;57587;55.688;37.600;2023-01-29T01:39:28;99653.69;;;1.24;55.60
70200;BME280;57587;55.688;37.600;2023-01-29T01:41:55;99653.06;;;1.21;55.01
70200;BME280;57587;55.688;37.600;2023-01-29T01:44:55;99648.66;;;1.21;54.73
70200;BME280;57587;55.688;37.600;2023-01-29T01:47:29;99647.69;;;1.22;53.46
70200;BME280;57587;55.688;37.600;2023-01-29T01:53:17;99637.66;;;1.16;53.40
70200;BME280;57587;55.688;37.600;2023-01-29T01:55:49;99636.09;;;1.13;54.04
70200;BME280;57587;55.688;37.600;2023-01-29T01:58:32;99627.22;;;1.14;54.14
70200;BME280;57587;55.688;37.600;2023-01-29T02:01:05;99627.84;;;1.07;54.52
70200;BME280;57587;55.688;37.600;2023-01-29T02:03:39;99624.72;;;1.13;54.30
70200;BME280;57587;55.688;37.600;2023-01-29T02:06:28;99615.84;;;1.14;54.30
70200;BME280;57587;55.688;37.600;2023-01-29T02:09:22;99618.22;;;1.17;54.71
70200;BME280;57587;55.688;37.600;2023-01-29T02:12:10;99611.78;;;1.21;54.10
70200;BME280;57587;55.688;37.600;2023-01-29T02:14:39;99601.81;;;1.13;53.59
70200;BME280;57587;55.688;37.600;2023-01-29T02:17:26;99604.13;;;1.07;53.88
70200;BME280;57587;55.688;37.600;2023-01-29T02:31:31;99587.13;;;1.00;53.83
70200;BME280;57587;55.688;37.600;2023-01-29T02:36:59;99579.59;;;0.95;53.46
70200;BME280;57587;55.688;37.600;2023-01-29T02:39:40;99575.75;;;0.99;52.93
70200;BME280;57587;55.688;37.600;2023-01-29T02:42:23;99575.03;;;0.97;53.23
70200;BME280;57587;55.688;37.600;2023-01-29T02:45:15;99571.56;;;0.97;53.34
70200;BME280;57587;55.688;37.600;2023-01-29T02:50:27;99562.59;;;0.99;52.13
70200;BME280;57587;55.688;37.600;2023-01-29T02:53:15;99559.81;;;1.01;52.37
70200;BME280;57587;55.688;37.600;2023-01-29T02:55:52;99556.25;;;0.90;52.28
70200;BME280;57587;55.688;37.600;2023-01-29T02:58:43;99561.53;;;0.90;53.20
70200;BME280;57587;55.688;37.600;2023-01-29T03:01:33;99549.78;;;0.95;52.86
70200;BME280;57587;55.688;37.600;2023-01-29T03:04:07;99540.31;;;0.92;52.82
70200;BME280;57587;55.688;37.600;2023-01-29T03:06:41;99546.16;;;0.96;52.36
70200;BME280;57587;55.688;37.600;2023-01-29T03:09:15;99549.03;;;0.92;52.97
70200;BME280;57587;55.688;37.600;2023-01-29T03:11:50;99546.56;;;0.91;53.09
70200;BME280;57587;55.688;37.600;2023-01-29T03:14:28;99537.19;;;0.98;52.86
70200;BME280;57587;55.688;37.600;2023-01-29T03:17:20;99539.72;;;1.00;52.34
70200;BME280;57587;55.688;37.600;2023-01-29T03:19:48;99524.41;;;0.94;52.85
70200;BME280;57587;55.688;37.600;2023-01-29T03:22:20;99523.31;;;0.96;52.78
70200;BME280;57587;55.688;37.600;2023-01-29T03:24:55;99517.19;;;0.96;53.01
70200;BME280;57587;55.688;37.600;2023-01-29T03:27:50;99525.31;;;1.04;52.37
70200;BME280;57587;55.688;37.600;2023-01-29T03:30:53;99514.44;;;0.97;52.38
70200;BME280;57587;55.688;37.600;2023-01-29T03:33:56;99501.13;;;0.99;51.76
70200;BME280;57587;55.688;37.600;2023-01-29T03:36:35;99502.25;;;0.96;51.91
70200;BME280;57587;55.688;37.600;2023-01-29T03:39:07;99489.09;;;0.85;52.34
70200;BME280;57587;55.688;37.600;2023-01-29T03:41:37;99494.09;;;0.88;51.47
70200;BME280;57587;55.688;37.600;2023-01-29T03:46:47;99483.44;;;0.89;51.75
70200;BME280;57587;55.688;37.600;2023-01-29T03:49:40;99480.56;;;0.92;52.34
70200;BME280;57587;55.688;37.600;2023-01-29T03:52:19;99469.69;;;0.86;50.85
70200;BME280;57587;55.688;37.600;2023-01-29T03:55:00;99459.88;;;0.88;51.32
70200;BME280;57587;55.688;37.600;2023-01-29T04:00:37;99460.22;;;0.83;51.49
70200;BME280;57587;55.688;37.600;2023-01-29T04:05:52;99458.81;;;0.79;51.87
70200;BME280;57587;55.688;37.600;2023-01-29T04:08:33;99449.41;;;0.65;51.71
70200;BME280;57587;55.688;37.600;2023-01-29T04:11:06;99445.91;;;0.65;52.12
70200;BME280;57587;55.688;37.600;2023-01-29T04:13:37;99450.09;;;0.67;52.68
70200;BME280;57587;55.688;37.600;2023-01-29T04:16:08;99436.59;;;0.61;52.45
70200;BME280;57587;55.688;37.600;2023-01-29T04:18:54;99434.22;;;0.58;51.93
70200;BME280;57587;55.688;37.600;2023-01-29T04:21:29;99436.13;;;0.56;52.34
70200;BME280;57587;55.688;37.600;2023-01-29T04:23:58;99442.25;;;0.56;52.62
70200;BME280;57587;55.688;37.600;2023-01-29T04:38:02;99439.72;;;0.55;52.85
70200;BME280;57587;55.688;37.600;2023-01-29T04:40:57;99431.31;;;0.61;52.78
70200;BME280;57587;55.688;37.600;2023-01-29T04:47:32;99434.22;;;0.58;52.54
70200;BME280;57587;55.688;37.600;2023-01-29T04:55:44;99432.22;;;0.50;52.70
70200;BME280;57587;55.688;37.600;2023-01-29T05:01:01;99428.25;;;0.44;53.16
70200;BME280;57587;55.688;37.600;2023-01-29T05:03:31;99425.75;;;0.43;53.02
70200;BME280;57587;55.688;37.600;2023-01-29T05:06:01;99418.56;;;0.45;53.16
70200;BME280;57587;55.688;37.600;2023-01-29T05:08:29;99413.53;;;0.42;53.15
70200;BME280;57587;55.688;37.600;2023-01-29T05:10:58;99401.59;;;0.38;53.28
70200;BME280;57587;55.688;37.600;2023-01-29T05:13:28;99413.94;;;0.26;53.53
70200;BME280;57587;55.688;37.600;2023-01-29T05:16:25;99416.81;;;0.23;53.87
70200;BME280;57587;55.688;37.600;2023-01-29T05:18:53;99401.63;;;0.27;53.95
70200;BME280;57587;55.688;37.600;2023-01-29T05:21:21;99409.59;;;0.36;53.99
70200;BME280;57587;55.688;37.600;2023-01-29T05:24:18;99415.84;;;0.35;53.34
70200;BME280;57587;55.688;37.600;2023-01-29T05:26:47;99418.81;;;0.31;53.92
70200;BME280;57587;55.688;37.600;2023-01-29T05:29:33;99414.28;;;0.33;53.76
70200;BME280;57587;55.688;37.600;2023-01-29T05:32:00;99419.53;;;0.33;53.78
70200;BME280;57587;55.688;37.600;2023-01-29T05:34:29;99420.88;;;0.27;53.69
70200;BME280;57587;55.688;37.600;2023-01-29T05:36:56;99424.09;;;0.31;53.95
70200;BME280;57587;55.688;37.600;2023-01-29T05:39:23;99420.63;;;0.30;53.59
70200;BME280;57587;55.688;37.600;2023-01-29T05:41:50;99420.38;;;0.33;54.11
70200;BME280;57587;55.688;37.600;2023-01-29T05:44:17;99423.50;;;0.27;54.13
70200;BME280;57587;55.688;37.600;2023-01-29T05:47:03;99418.13;;;0.29;54.40
70200;BME280;57587;55.688;37.600;2023-01-29T05:49:30;99422.56;;;0.28;54.04
70200;BME280;57587;55.688;37.600;2023-01-29T05:51:57;99421.59;;;0.29;54.36
70200;BME280;57587;55.688;37.600;2023-01-29T05:54:24;99424.69;;;0.34;54.67
70200;BME280;57587;55.688;37.600;2023-01-29T05:56:51;99417.25;;;0.39;54.19
70200;BME280;57587;55.688;37.600;2023-01-29T05:59:18;99413.69;;;0.40;54.15
70200;BME280;57587;55.688;37.600;2023-01-29T06:01:45;99412.56;;;0.43;54.25
70200;BME280;57587;55.688;37.600;2023-01-29T06:04:12;99418.91;;;0.52;54.42
70200;BME280;57587;55.688;37.600;2023-01-29T06:06:39;99430.16;;;0.42;54.07
70200;BME280;57587;55.688;37.600;2023-01-29T06:09:09;99425.63;;;0.44;54.75
70200;BME280;57587;55.688;37.600;2023-01-29T06:11:36;99425.25;;;0.49;54.69
70200;BME280;57587;55.688;37.600;2023-01-29T06:14:03;99424.75;;;0.55;54.59
70200;BME280;57587;55.688;37.600;2023-01-29T06:16:30;99424.41;;;0.49;54.65
70200;BME280;57587;55.688;37.600;2023-01-29T06:18:57;99424.91;;;0.42;54.85
70200;BME280;57587;55.688;37.600;2023-01-29T06:21:24;99425.63;;;0.44;54.70
70200;BME280;57587;55.688;37.600;2023-01-29T06:23:52;99416.16;;;0.53;54.68
70200;BME280;57587;55.688;37.600;2023-01-29T06:26:19;99419.50;;;0.55;54.85
70200;BME280;57587;55.688;37.600;2023-01-29T06:28:49;99417.25;;;0.51;54.58
70200;BME280;57587;55.688;37.600;2023-01-29T06:31:17;99404.53;;;0.56;53.96
70200;BME280;57587;55.688;37.600;2023-01-29T06:34:05;99407.69;;;0.50;53.91
70200;BME280;57587;55.688;37.600;2023-01-29T06:36:33;99398.81;;;0.51;54.20
70200;BME280;57587;55.688;37.600;2023-01-29T06:39:00;99403.59;;;0.45;53.68
70200;BME280;57587;55.688;37.600;2023-01-29T06:41:27;99394.88;;;0.45;54.37
70200;BME280;57587;55.688;37.600;2023-01-29T06:43:54;99409.34;;;0.39;54.77
70200;BME280;57587;55.688;37.600;2023-01-29T06:46:21;99398.22;;;0.47;54.17
70200;BME280;57587;55.688;37.600;2023-01-29T06:48:48;99405.13;;;0.59;54.76
70200;BME280;57587;55.688;37.600;2023-01-29T06:51:16;99400.31;;;0.64;54.48
70200;BME280;57587;55.688;37.600;2023-01-29T06:53:43;99412.72;;;0.74;54.38
70200;BME280;57587;55.688;37.600;2023-01-29T06:56:12;99393.34;;;0.75;54.05
70200;BME280;57587;55.688;37.600;2023-01-29T06:58:39;99390.84;;;0.73;53.80
70200;BME280;57587;55.688;37.600;2023-01-29T07:01:09;99391.41;;;0.77;54.04
70200;BME280;57587;55.688;37.600;2023-01-29T07:03:39;99377.56;;;0.75;53.90
70200;BME280;57587;55.688;37.600;2023-01-29T07:06:08;99385.06;;;0.79;52.99
70200;BME280;57587;55.688;37.600;2023-01-29T07:08:38;99380.63;;;0.80;53.36
70200;BME280;57587;55.688;37.600;2023-01-29T07:11:06;99371.44;;;0.74;53.14
70200;BME280;57587;55.688;37.600;2023-01-29T07:13:36;99362.84;;;0.72;53.40
70200;BME280;57587;55.688;37.600;2023-01-29T07:16:04;99365.34;;;0.74;52.82
70200;BME280;57587;55.688;37.600;2023-01-29T07:18:32;99374.06;;;0.74;53.74
70200;BME280;57587;55.688;37.600;2023-01-29T07:21:03;99374.19;;;0.73;52.82
70200;BME280;57587;55.688;37.600;2023-01-29T07:23:32;99365.22;;;0.75;53.39
70200;BME280;57587;55.688;37.600;2023-01-29T07:26:04;99374.34;;;0.92;53.08
70200;BME280;57587;55.688;37.600;2023-01-29T07:28:36;99367.66;;;0.88;52.66
70200;BME280;57587;55.688;37.600;2023-01-29T07:31:04;99366.00;;;0.87;52.69
70200;BME280;57587;55.688;37.600;2023-01-29T07:33:32;99369.34;;;0.89;52.37
70200;BME280;57587;55.688;37.600;2023-01-29T07:35:59;99368.75;;;0.85;52.26
70200;BME280;57587;55.688;37.600;2023-01-29T07:38:26;99368.50;;;0.88;52.66
70200;BME280;57587;55.688;37.600;2023-01-29T07:40:53;99367.53;;;0.89;52.72
70200;BME280;57587;55.688;37.600;2023-01-29T07:43:21;99368.13;;;0.93;52.97
70200;BME280;57587;55.688;37.600;2023-01-29T07:45:50;99366.16;;;1.06;52.72
70200;BME280;57587;55.688;37.600;2023-01-29T07:48:18;99368.00;;;0.95;52.39
70200;BME280;57587;55.688;37.600;2023-01-29T07:50:53;99370.41;;;0.86;52.05
70200;BME280;57587;55.688;37.600;2023-01-29T07:53:21;99359.63;;;0.89;52.44
70200;BME280;57587;55.688;37.600;2023-01-29T07:55:48;99350.22;;;0.87;52.65
70200;BME280;57587;55.688;37.600;2023-01-29T07:58:15;99346.97;;;0.83;52.27
70200;BME280;57587;55.688;37.600;2023-01-29T08:00:43;99339.53;;;0.88;51.92
70200;BME280;57587;55.688;37.600;2023-01-29T08:03:13;99327.25;;;0.99;52.05
70200;BME280;57587;55.688;37.600;2023-01-29T08:05:43;99331.75;;;1.08;52.40
70200;BME280;57587;55.688;37.600;2023-01-29T08:08:10;99338.50;;;1.22;51.58
70200;BME280;57587;55.688;37.600;2023-01-29T08:10:38;99337.94;;;1.18;50.96
70200;BME280;57587;55.688;37.600;2023-01-29T08:13:06;99343.25;;;0.86;51.48
70200;BME280;57587;55.688;37.600;2023-01-29T08:15:34;99340.63;;;1.07;51.63
70200;BME280;57587;55.688;37.600;2023-01-29T08:18:05;99331.56;;;1.00;52.13
70200;BME280;57587;55.688;37.600;2023-01-29T08:20:35;99326.78;;;1.14;52.01
70200;BME280;57587;55.688;37.600;2023-01-29T08:23:07;99314.84;;;1.10;52.07
70200;BME280;57587;55.688;37.600;2023-01-29T08:25:35;99317.84;;;0.96;52.91
70200;BME280;57587;55.688;37.600;2023-01-29T08:28:02;99316.84;;;0.97;52.69
70200;BME280;57587;55.688;37.600;2023-01-29T08:30:32;99318.56;;;1.08;51.73
70200;BME280;57587;55.688;37.600;2023-01-29T08:33:00;99319.28;;;1.10;52.44
70200;BME280;57587;55.688;37.600;2023-01-29T08:35:28;99311.59;;;1.18;50.77
70200;BME280;57587;55.688;37.600;2023-01-29T08:37:57;99312.97;;;1.22;51.16
70200;BME280;57587;55.688;37.600;2023-01-29T08:40:30;99306.81;;;1.12;52.01
70200;BME280;57587;55.688;37.600;2023-01-29T08:43:03;99317.47;;;1.31;52.21
70200;BME280;57587;55.688;37.600;2023-01-29T08:45:35;99324.28;;;1.34;51.13
70200;BME280;57587;55.688;37.600;2023-01-29T08:48:03;99316.22;;;1.35;50.14
70200;BME280;57587;55.688;37.600;2023-01-29T08:50:30;99311.41;;;1.41;50.48
70200;BME280;57587;55.688;37.600;2023-01-29T08:53:00;99321.44;;;1.47;50.32
70200;BME280;57587;55.688;37.600;2023-01-29T08:55:27;99316.06;;;1.27;50.38
70200;BME280;57587;55.688;37.600;2023-01-29T08:57:54;99310.72;;;1.18;50.51
70200;BME280;57587;55.688;37.600;2023-01-29T09:00:25;99308.50;;;1.13;50.35
70200;BME280;57587;55.688;37.600;2023-01-29T09:02:52;99303.22;;;1.13;50.23
70200;BME280;57587;55.688;37.600;2023-01-29T09:05:19;99302.13;;;0.95;49.90
70200;BME280;57587;55.688;37.600;2023-01-29T09:07:46;99299.25;;;0.98;50.15
70200;BME280;57587;55.688;37.600;2023-01-29T09:10:14;99297.59;;;0.97;50.85
70200;BME280;57587;55.688;37.600;2023-01-29T09:12:42;99289.22;;;0.91;50.29
70200;BME280;57587;55.688;37.600;2023-01-29T09:15:09;99286.78;;;1.00;50.53
70200;BME280;57587;55.688;37.600;2023-01-29T09:17:36;99299.56;;;1.04;50.54
70200;BME280;57587;55.688;37.600;2023-01-29T09:20:04;99302.78;;;0.87;50.84
70200;BME280;57587;55.688;37.600;2023-01-29T09:22:32;99298.34;;;0.87;51.38
70200;BME280;57587;55.688;37.600;2023-01-29T09:24:59;99288.72;;;0.98;50.98
70200;BME280;57587;55.688;37.600;2023-01-29T09:27:26;99290.38;;;0.99;50.41
70200;BME280;57587;55.688;37.600;2023-01-29T09:29:53;99290.81;;;1.04;50.48
70200;BME280;57587;55.688;37.600;2023-01-29T09:32:20;99281.78;;;0.97;50.38
70200;BME280;57587;55.688;37.600;2023-01-29T09:35:08;99282.66;;;1.07;50.96
70200;BME280;57587;55.688;37.600;2023-01-29T09:37:35;99272.84;;;1.09;50.18
70200;BME280;57587;55.688;37.600;2023-01-29T09:40:02;99260.44;;;1.00;50.21
70200;BME280;57587;55.688;37.600;2023-01-29T09:42:38;99250.94;;;0.87;50.23
70200;BME280;57587;55.688;37.600;2023-01-29T09:45:18;99270.16;;;0.99;50.33
70200;BME280;57587;55.688;37.600;2023-01-29T09:47:46;99258.69;;;1.10;50.22
70200;BME280;57587;55.688;37.600;2023-01-29T09:50:21;99257.13;;;1.07;50.63
70200;BME280;57587;55.688;37.600;2023-01-29T09:52:58;99256.84;;;1.01;50.54
70200;BME280;57587;55.688;37.600;2023-01-29T09:55:40;99261.78;;;1.15;50.28
70200;BME280;57587;55.688;37.600;2023-01-29T09:58:17;99255.78;;;1.13;50.13
70200;BME280;57587;55.688;37.600;2023-01-29T10:03:47;99241.84;;;1.01;51.02
70200;BME280;57587;55.688;37.600;2023-01-29T10:09:43;99233.06;;;1.12;50.97
70200;BME280;57587;55.688;37.600;2023-01-29T10:12:52;99220.22;;;0.98;50.42
70200;BME280;57587;55.688;37.600;2023-01-29T10:26:37;99207.75;;;1.00;51.54
70200;BME280;57587;55.688;37.600;2023-01-29T10:29:07;99189.63;;;1.06;51.42
70200;BME280;57587;55.688;37.600;2023-01-29T10:31:38;99185.09;;;1.18;51.41
70200;BME280;57587;55.688;37.600;2023-01-29T10:36:46;99160.41;;;1.19;50.45
70200;BME280;57587;55.688;37.600;2023-01-29T10:39:18;99159.28;;;1.12;50.74
70200;BME280;57587;55.688;37.600;2023-01-29T10:53:30;99141.78;;;1.11;51.18
70200;BME280;57587;55.688;37.600;2023-01-29T10:56:18;99145.44;;;1.29;51.66
70200;BME280;57587;55.688;37.600;2023-01-29T10:58:53;99136.50;;;1.11;50.81
70200;BME280;57587;55.688;37.600;2023-01-29T11:01:24;99134.56;;;1.03;51.04
70200;BME280;57587;55.688;37.600;2023-01-29T11:03:58;99131.50;;;1.08;52.00
70200;BME280;57587;55.688;37.600;2023-01-29T11:06:34;99135.13;;;1.07;51.41
70200;BME280;57587;55.688;37.600;2023-01-29T11:11:49;99120.97;;;1.08;51.65
70200;BME280;57587;55.688;37.600;2023-01-29T11:14:52;99114.84;;;0.98;51.37
70200;BME280;57587;55.688;37.600;2023-01-29T11:17:34;99116.94;;;1.04;52.36
70200;BME280;57587;55.688;37.600;2023-01-29T11:20:41;99111.22;;;0.99;52.08
70200;BME280;57587;55.688;37.600;2023-01-29T11:27:59;99106.66;;;1.01;51.55
70200;BME280;57587;55.688;37.600;2023-01-29T11:31:35;99102.66;;;1.06;52.09
70200;BME280;57587;55.688;37.600;2023-01-29T11:34:24;99106.56;;;1.12;52.01
70200;BME280;57587;55.688;37.600;2023-01-29T11:37:14;99096.72;;;1.14;51.77
70200;BME280;57587;55.688;37.600;2023-01-29T11:40:32;99099.69;;;1.30;51.85
70200;BME280;57587;55.688;37.600;2023-01-29T11:43:42;99076.91;;;1.29;51.09
70200;BME280;57587;55.688;37.600;2023-01-29T11:46:17;99089.97;;;1.41;51.69
70200;BME280;57587;55.688;37.600;2023-01-29T11:48:46;99103.16;;;1.50;51.40
70200;BME280;57587;55.688;37.600;2023-01-29T11:52:12;99098.72;;;1.41;51.54
70200;BME280;57587;55.688;37.600;2023-01-29T11:55:00;99076.09;;;1.38;52.15
70200;BME280;57587;55.688;37.600;2023-01-29T12:00:56;99095.50;;;1.37;51.96
70200;BME280;57587;55.688;37.600;2023-01-29T12:07:35;99078.03;;;1.36;51.79
70200;BME280;57587;55.688;37.600;2023-01-29T12:17:38;99064.97;;;1.45;51.51
70200;BME280;57587;55.688;37.600;2023-01-29T12:24:10;99083.44;;;1.54;52.09
70200;BME280;57587;55.688;37.600;2023-01-29T12:37:15;99074.94;;;1.12;53.14
70200;BME280;57587;55.688;37.600;2023-01-29T12:39:47;99076.78;;;1.21;53.33
70200;BME280;57587;55.688;37.600;2023-01-29T12:42:34;99075.34;;;1.17;53.82
70200;BME280;57587;55.688;37.600;2023-01-29T12:45:57;99084.41;;;1.24;53.16
70200;BME280;57587;55.688;37.600;2023-01-29T12:48:40;99068.00;;;1.11;53.66
70200;BME280;57587;55.688;37.600;2023-01-29T12:51:57;99052.72;;;0.95;53.84
70200;BME280;57587;55.688;37.600;2023-01-29T12:54:44;99078.16;;;1.15;54.08
70200;BME280;57587;55.688;37.600;2023-01-29T12:57:46;99080.50;;;1.19;53.50
70200;BME280;57587;55.688;37.600;2023-01-29T13:00:51;99065.34;;;1.01;53.75
70200;BME280;57587;55.688;37.600;2023-01-29T13:03:52;99076.88;;;1.10;54.61
70200;BME280;57587;55.688;37.600;2023-01-29T13:06:43;99063.69;;;1.10;53.88
70200;BME280;57587;55.688;37.600;2023-01-29T13:09:23;99078.81;;;1.18;53.78
70200;BME280;57587;55.688;37.600;2023-01-29T13:11:57;99071.16;;;1.05;54.84
70200;BME280;57587;55.688;37.600;2023-01-29T13:14:34;99068.00;;;1.11;54.18
70200;BME280;57587;55.688;37.600;2023-01-29T13:17:17;99071.78;;;1.18;54.48
70200;BME280;57587;55.688;37.600;2023-01-29T13:19:50;99062.75;;;1.21;54.05
70200;BME280;57587;55.688;37.600;2023-01-29T13:22:27;99058.16;;;1.23;53.94
70200;BME280;57587;55.688;37.600;2023-01-29T13:24:56;99059.72;;;1.25;54.09
70200;BME280;57587;55.688;37.600;2023-01-29T13:27:38;99063.59;;;1.21;54.11
70200;BME280;57587;55.688;37.600;2023-01-29T13:30:06;99053.16;;;1.10;53.58
70200;BME280;57587;55.688;37.600;2023-01-29T13:32:35;99058.41;;;1.00;54.34
70200;BME280;57587;55.688;37.600;2023-01-29T13:35:11;99055.50;;;0.94;54.61
70200;BME280;57587;55.688;37.600;2023-01-29T13:37:46;99051.06;;;1.04;54.81
70200;BME280;57587;55.688;37.600;2023-01-29T13:42:57;99051.19;;;0.92;54.92
70200;BME280;57587;55.688;37.600;2023-01-29T13:48:18;99041.63;;;0.91;54.94
70200;BME280;57587;55.688;37.600;2023-01-29T13:50:52;99042.44;;;0.92;55.10
70200;BME280;57587;55.688;37.600;2023-01-29T13:53:24;99048.13;;;0.87;55.19
70200;BME280;57587;55.688;37.600;2023-01-29T13:56:28;99039.13;;;0.90;55.14
70200;BME280;57587;55.688;37.600;2023-01-29T13:58:57;99037.72;;;0.86;55.12
70200;BME280;57587;55.688;37.600;2023-01-29T14:06:47;99039.25;;;0.88;55.42
70200;BME280;57587;55.688;37.600;2023-01-29T14:17:24;99028.56;;;0.80;55.72
70200;BME280;57587;55.688;37.600;2023-01-29T14:20:00;99021.06;;;0.76;56.24
70200;BME280;57587;55.688;37.600;2023-01-29T14:22:30;99015.00;;;0.85;56.53
70200;BME280;57587;55.688;37.600;2023-01-29T14:25:03;99011.81;;;0.81;56.14
70200;BME280;57587;55.688;37.600;2023-01-29T14:27:31;99016.63;;;0.76;56.19
70200;BME280;57587;55.688;37.600;2023-01-29T14:30:07;99020.38;;;0.74;56.61
70200;BME280;57587;55.688;37.600;2023-01-29T14:32:38;99006.91;;;0.67;56.80
70200;BME280;57587;55.688;37.600;2023-01-29T14:35:20;99001.91;;;0.64;56.97
70200;BME280;57587;55.688;37.600;2023-01-29T14:37:53;99014.09;;;0.65;57.14
70200;BME280;57587;55.688;37.600;2023-01-29T14:40:24;99009.28;;;0.70;57.38
70200;BME280;57587;55.688;37.600;2023-01-29T14:43:05;99021.72;;;0.68;57.31
70200;BME280;57587;55.688;37.600;2023-01-29T14:45:39;98999.09;;;0.56;57.23
70200;BME280;57587;55.688;37.600;2023-01-29T14:48:44;99013.94;;;0.57;58.04
70200;BME280;57587;55.688;37.600;2023-01-29T14:59:09;99008.03;;;0.74;57.64
70200;BME280;57587;55.688;37.600;2023-01-29T15:01:38;99001.34;;;0.60;57.85
70200;BME280;57587;55.688;37.600;2023-01-29T15:06:45;99013.88;;;0.78;57.78
70200;BME280;57587;55.688;37.600;2023-01-29T15:09:17;99000.94;;;0.65;58.02
70200;BME280;57587;55.688;37.600;2023-01-29T15:12:05;99002.97;;;0.52;58.20
70200;BME280;57587;55.688;37.600;2023-01-29T15:18:33;99007.56;;;0.50;58.65
70200;BME280;57587;55.688;37.600;2023-01-29T15:22:24;99002.72;;;0.55;58.71
70200;BME280;57587;55.688;37.600;2023-01-29T15:25:36;98977.19;;;0.45;58.67
70200;BME280;57587;55.688;37.600;2023-01-29T15:28:21;98977.16;;;0.36;58.71
70200;BME280;57587;55.688;37.600;2023-01-29T15:30:53;98999.06;;;0.46;59.34
70200;BME280;57587;55.688;37.600;2023-01-29T15:33:20;98992.56;;;0.40;59.75
70200;BME280;57587;55.688;37.600;2023-01-29T15:35:48;99006.72;;;0.49;60.31
70200;BME280;57587;55.688;37.600;2023-01-29T15:38:32;99002.94;;;0.42;60.08
70200;BME280;57587;55.688;37.600;2023-01-29T15:41:02;99015.41;;;0.40;60.71
70200;BME280;57587;55.688;37.600;2023-01-29T15:43:42;99011.00;;;0.40;60.33
70200;BME280;57587;55.688;37.600;2023-01-29T15:48:54;98992.44;;;0.52;62.26
70200;BME280;57587;55.688;37.600;2023-01-29T15:51:26;98998.56;;;0.62;62.19
70200;BME280;57587;55.688;37.600;2023-01-29T15:53:55;98991.94;;;0.67;61.83
70200;BME280;57587;55.688;37.600;2023-01-29T15:56:27;99002.75;;;0.64;61.38
70200;BME280;57587;55.688;37.600;2023-01-29T15:58:57;98995.66;;;0.55;60.33
70200;BME280;57587;55.688;37.600;2023-01-29T16:01:30;98996.47;;;0.56;60.38
70200;BME280;57587;55.688;37.600;2023-01-29T16:04:04;98986.38;;;0.61;60.52
70200;BME280;57587;55.688;37.600;2023-01-29T16:06:41;98986.38;;;0.51;59.91
70200;BME280;57587;55.688;37.600;2023-01-29T16:09:22;98984.44;;;0.53;60.43
70200;BME280;57587;55.688;37.600;2023-01-29T16:12:04;98971.09;;;0.45;60.54
70200;BME280;57587;55.688;37.600;2023-01-29T16:14:36;98974.41;;;0.37;60.03
70200;BME280;57587;55.688;37.600;2023-01-29T16:17:46;98954.44;;;0.25;60.13
70200;BME280;57587;55.688;37.600;2023-01-29T16:20:55;98970.81;;;0.38;60.69